sensor_id;sensor_type;location;lat;lon;timestamp;P1;durP1;ratioP1;P2;durP2;ratioP2
20042;SDS011;10182;52.896;6.496;2022-08-03T00:02:49;6.63;;;2.50;;
20042;SDS011;10182;52.896;6.496;2022-08-03T00:07:51;5.17;;;2.23;;
20042;SDS011;10182;52.896;6.496;2022-08-03T00:12:53;8.37;;;2.20;;
20042;SDS011;10182;52.896;6.496;2022-08-03T00:17:56;6.50;;;2.23;;
20042;SDS011;10182;52.896;6.496;2022-08-03T00:22:57;6.40;;;2.00;;
20042;SDS011;10182;52.896;6.496;2022-08-03T00:27:59;5.57;;;2.00;;
20042;SDS011;10182;52.896;6.496;2022-08-03T00:33:02;4.10;;;1.93;;
20042;SDS011;10182;52.896;6.496;2022-08-03T00:38:04;6.13;;;1.70;;
20042;SDS011;10182;52.896;6.496;2022-08-03T00:43:06;5.47;;;1.83;;
20042;SDS011;10182;52.896;6.496;2022-08-03T00:48:11;5.57;;;1.90;;
20042;SDS011;10182;52.896;6.496;2022-08-03T00:53:13;5.77;;;2.60;;
20042;SDS011;10182;52.896;6.496;2022-08-03T00:58:14;5.37;;;2.23;;
20042;SDS011;10182;52.896;6.496;2022-08-03T01:03:18;6.37;;;2.20;;
20042;SDS011;10182;52.896;6.496;2022-08-03T01:08:22;3.97;;;2.07;;
20042;SDS011;10182;52.896;6.496;2022-08-03T01:13:33;3.77;;;1.97;;
20042;SDS011;10182;52.896;6.496;2022-08-03T01:18:44;6.30;;;2.53;;
20042;SDS011;10182;52.896;6.496;2022-08-03T01:23:58;9.13;;;2.37;;
20042;SDS011;10182;52.896;6.496;2022-08-03T01:29:09;7.37;;;2.13;;
20042;SDS011;10182;52.896;6.496;2022-08-03T01:34:25;6.37;;;2.47;;
20042;SDS011;10182;52.896;6.496;2022-08-03T01:39:31;4.87;;;2.40;;
20042;SDS011;10182;52.896;6.496;2022-08-03T01:44:40;8.57;;;3.03;;
20042;SDS011;10182;52.896;6.496;2022-08-03T01:49:44;8.30;;;2.80;;
20042;SDS011;10182;52.896;6.496;2022-08-03T01:54:48;7.97;;;2.97;;
20042;SDS011;10182;52.896;6.496;2022-08-03T01:59:52;8.37;;;3.17;;
20042;SDS011;10182;52.896;6.496;2022-08-03T02:04:57;9.10;;;3.23;;
20042;SDS011;10182;52.896;6.496;2022-08-03T02:10:03;5.43;;;2.83;;
20042;SDS011;10182;52.896;6.496;2022-08-03T02:15:07;7.73;;;3.07;;
20042;SDS011;10182;52.896;6.496;2022-08-03T02:20:13;10.23;;;3.30;;
20042;SDS011;10182;52.896;6.496;2022-08-03T02:25:17;9.50;;;3.37;;
20042;SDS011;10182;52.896;6.496;2022-08-03T02:30:18;7.57;;;3.20;;
20042;SDS011;10182;52.896;6.496;2022-08-03T02:35:23;8.03;;;3.07;;
20042;SDS011;10182;52.896;6.496;2022-08-03T02:40:28;9.23;;;3.30;;
20042;SDS011;10182;52.896;6.496;2022-08-03T02:45:31;8.73;;;3.37;;
20042;SDS011;10182;52.896;6.496;2022-08-03T02:50:37;5.70;;;3.30;;
20042;SDS011;10182;52.896;6.496;2022-08-03T02:55:40;5.17;;;3.10;;
20042;SDS011;10182;52.896;6.496;2022-08-03T03:00:42;6.03;;;3.80;;
20042;SDS011;10182;52.896;6.496;2022-08-03T03:05:47;7.97;;;3.37;;
20042;SDS011;10182;52.896;6.496;2022-08-03T03:10:50;6.80;;;3.20;;
20042;SDS011;10182;52.896;6.496;2022-08-03T03:15:52;5.97;;;3.73;;
20042;SDS011;10182;52.896;6.496;2022-08-03T03:20:58;7.20;;;3.50;;
20042;SDS011;10182;52.896;6.496;2022-08-03T03:26:02;7.23;;;3.80;;
20042;SDS011;10182;52.896;6.496;2022-08-03T03:31:05;7.30;;;3.73;;
20042;SDS011;10182;52.896;6.496;2022-08-03T03:36:08;9.50;;;3.43;;
20042;SDS011;10182;52.896;6.496;2022-08-03T03:41:10;8.53;;;3.27;;
20042;SDS011;10182;52.896;6.496;2022-08-03T03:46:12;9.37;;;3.37;;
20042;SDS011;10182;52.896;6.496;2022-08-03T03:51:15;9.97;;;3.30;;
20042;SDS011;10182;52.896;6.496;2022-08-03T03:56:17;10.13;;;3.87;;
20042;SDS011;10182;52.896;6.496;2022-08-03T04:01:19;7.87;;;3.57;;
20042;SDS011;10182;52.896;6.496;2022-08-03T04:06:22;9.57;;;3.43;;
20042;SDS011;10182;52.896;6.496;2022-08-03T04:11:42;11.23;;;3.67;;
20042;SDS011;10182;52.896;6.496;2022-08-03T04:16:49;6.23;;;3.33;;
20042;SDS011;10182;52.896;6.496;2022-08-03T04:21:56;11.30;;;3.57;;
20042;SDS011;10182;52.896;6.496;2022-08-03T04:27:01;8.77;;;3.67;;
20042;SDS011;10182;52.896;6.496;2022-08-03T04:32:07;11.10;;;4.03;;
20042;SDS011;10182;52.896;6.496;2022-08-03T04:37:12;8.20;;;3.80;;
20042;SDS011;10182;52.896;6.496;2022-08-03T04:42:19;9.30;;;3.80;;
20042;SDS011;10182;52.896;6.496;2022-08-03T04:47:23;5.43;;;2.97;;
20042;SDS011;10182;52.896;6.496;2022-08-03T04:52:26;8.43;;;3.87;;
20042;SDS011;10182;52.896;6.496;2022-08-03T04:57:28;8.80;;;4.50;;
20042;SDS011;10182;52.896;6.496;2022-08-03T05:02:30;7.13;;;3.53;;
20042;SDS011;10182;52.896;6.496;2022-08-03T05:07:34;7.97;;;3.50;;
20042;SDS011;10182;52.896;6.496;2022-08-03T05:12:35;10.13;;;4.77;;
20042;SDS011;10182;52.896;6.496;2022-08-03T05:17:37;9.90;;;3.50;;
20042;SDS011;10182;52.896;6.496;2022-08-03T05:22:40;12.60;;;3.77;;
20042;SDS011;10182;52.896;6.496;2022-08-03T05:27:42;6.10;;;4.03;;
20042;SDS011;10182;52.896;6.496;2022-08-03T05:32:43;9.13;;;3.70;;
20042;SDS011;10182;52.896;6.496;2022-08-03T05:37:46;9.10;;;3.93;;
20042;SDS011;10182;52.896;6.496;2022-08-03T05:42:48;9.90;;;3.77;;
20042;SDS011;10182;52.896;6.496;2022-08-03T05:47:50;11.93;;;4.43;;
20042;SDS011;10182;52.896;6.496;2022-08-03T05:52:55;8.80;;;4.13;;
20042;SDS011;10182;52.896;6.496;2022-08-03T05:57:57;10.23;;;4.37;;
20042;SDS011;10182;52.896;6.496;2022-08-03T06:03:01;10.30;;;4.37;;
20042;SDS011;10182;52.896;6.496;2022-08-03T06:08:05;9.63;;;4.00;;
20042;SDS011;10182;52.896;6.496;2022-08-03T06:13:06;9.90;;;4.37;;
20042;SDS011;10182;52.896;6.496;2022-08-03T06:18:08;9.43;;;4.80;;
20042;SDS011;10182;52.896;6.496;2022-08-03T06:23:11;14.93;;;4.53;;
20042;SDS011;10182;52.896;6.496;2022-08-03T06:28:13;15.33;;;4.40;;
20042;SDS011;10182;52.896;6.496;2022-08-03T06:33:16;10.93;;;4.53;;
20042;SDS011;10182;52.896;6.496;2022-08-03T06:38:19;11.57;;;4.53;;
20042;SDS011;10182;52.896;6.496;2022-08-03T06:43:21;13.17;;;4.47;;
20042;SDS011;10182;52.896;6.496;2022-08-03T06:48:23;10.00;;;4.60;;
20042;SDS011;10182;52.896;6.496;2022-08-03T06:53:26;13.03;;;4.17;;
20042;SDS011;10182;52.896;6.496;2022-08-03T06:58:28;7.63;;;4.30;;
20042;SDS011;10182;52.896;6.496;2022-08-03T07:03:29;11.37;;;4.43;;
20042;SDS011;10182;52.896;6.496;2022-08-03T07:08:32;14.43;;;5.43;;
20042;SDS011;10182;52.896;6.496;2022-08-03T07:13:34;11.43;;;5.00;;
20042;SDS011;10182;52.896;6.496;2022-08-03T07:18:37;12.87;;;4.77;;
20042;SDS011;10182;52.896;6.496;2022-08-03T07:23:40;12.43;;;5.10;;
20042;SDS011;10182;52.896;6.496;2022-08-03T07:28:41;12.07;;;4.77;;
20042;SDS011;10182;52.896;6.496;2022-08-03T07:33:43;16.47;;;4.83;;
20042;SDS011;10182;52.896;6.496;2022-08-03T07:38:46;12.73;;;4.17;;
20042;SDS011;10182;52.896;6.496;2022-08-03T07:43:48;9.93;;;4.30;;
20042;SDS011;10182;52.896;6.496;2022-08-03T07:48:50;13.63;;;4.50;;
20042;SDS011;10182;52.896;6.496;2022-08-03T07:53:53;11.87;;;4.73;;
20042;SDS011;10182;52.896;6.496;2022-08-03T07:58:56;12.67;;;4.60;;
20042;SDS011;10182;52.896;6.496;2022-08-03T08:03:58;14.23;;;4.67;;
20042;SDS011;10182;52.896;6.496;2022-08-03T08:09:02;12.10;;;4.93;;
20042;SDS011;10182;52.896;6.496;2022-08-03T08:14:03;10.07;;;4.27;;
20042;SDS011;10182;52.896;6.496;2022-08-03T08:19:06;10.57;;;3.80;;
20042;SDS011;10182;52.896;6.496;2022-08-03T08:24:09;15.50;;;4.33;;
20042;SDS011;10182;52.896;6.496;2022-08-03T08:29:11;10.33;;;4.10;;
20042;SDS011;10182;52.896;6.496;2022-08-03T08:34:13;13.27;;;4.30;;
20042;SDS011;10182;52.896;6.496;2022-08-03T08:39:16;14.00;;;4.47;;
20042;SDS011;10182;52.896;6.496;2022-08-03T08:44:18;13.53;;;4.43;;
20042;SDS011;10182;52.896;6.496;2022-08-03T08:49:20;12.07;;;4.10;;
20042;SDS011;10182;52.896;6.496;2022-08-03T08:54:27;16.23;;;3.27;;
20042;SDS011;10182;52.896;6.496;2022-08-03T08:59:32;11.83;;;4.27;;
20042;SDS011;10182;52.896;6.496;2022-08-03T09:04:35;11.40;;;3.33;;
20042;SDS011;10182;52.896;6.496;2022-08-03T09:09:40;11.17;;;3.60;;
20042;SDS011;10182;52.896;6.496;2022-08-03T09:14:42;10.40;;;4.07;;
20042;SDS011;10182;52.896;6.496;2022-08-03T09:19:46;12.83;;;3.67;;
20042;SDS011;10182;52.896;6.496;2022-08-03T09:25:07;11.43;;;3.57;;
20042;SDS011;10182;52.896;6.496;2022-08-03T09:30:14;13.07;;;3.37;;
20042;SDS011;10182;52.896;6.496;2022-08-03T09:35:17;11.90;;;3.57;;
20042;SDS011;10182;52.896;6.496;2022-08-03T09:40:34;11.67;;;3.37;;
20042;SDS011;10182;52.896;6.496;2022-08-03T09:45:36;10.13;;;4.00;;
20042;SDS011;10182;52.896;6.496;2022-08-03T09:50:46;9.03;;;3.10;;
20042;SDS011;10182;52.896;6.496;2022-08-03T09:55:50;9.40;;;2.90;;
20042;SDS011;10182;52.896;6.496;2022-08-03T10:00:55;10.93;;;3.03;;
20042;SDS011;10182;52.896;6.496;2022-08-03T10:05:58;10.70;;;3.53;;
20042;SDS011;10182;52.896;6.496;2022-08-03T10:11:21;9.93;;;2.90;;
20042;SDS011;10182;52.896;6.496;2022-08-03T10:16:31;11.20;;;2.90;;
20042;SDS011;10182;52.896;6.496;2022-08-03T10:21:36;10.63;;;2.83;;
20042;SDS011;10182;52.896;6.496;2022-08-03T10:26:40;10.47;;;3.20;;
20042;SDS011;10182;52.896;6.496;2022-08-03T10:31:45;7.27;;;3.17;;
20042;SDS011;10182;52.896;6.496;2022-08-03T10:36:49;10.43;;;3.57;;
20042;SDS011;10182;52.896;6.496;2022-08-03T10:41:54;11.93;;;3.57;;
20042;SDS011;10182;52.896;6.496;2022-08-03T10:46:58;12.17;;;3.80;;
20042;SDS011;10182;52.896;6.496;2022-08-03T10:52:00;9.70;;;3.53;;
20042;SDS011;10182;52.896;6.496;2022-08-03T10:57:04;13.60;;;3.33;;
20042;SDS011;10182;52.896;6.496;2022-08-03T11:08:19;11.50;;;3.60;;
20042;SDS011;10182;52.896;6.496;2022-08-03T11:13:30;13.33;;;4.00;;
20042;SDS011;10182;52.896;6.496;2022-08-03T11:18:32;10.70;;;3.43;;
20042;SDS011;10182;52.896;6.496;2022-08-03T11:23:42;18.43;;;4.10;;
20042;SDS011;10182;52.896;6.496;2022-08-03T11:28:47;14.73;;;3.97;;
20042;SDS011;10182;52.896;6.496;2022-08-03T11:34:02;13.43;;;3.77;;
20042;SDS011;10182;52.896;6.496;2022-08-03T11:39:13;16.23;;;4.37;;
20042;SDS011;10182;52.896;6.496;2022-08-03T11:49:43;13.03;;;3.43;;
20042;SDS011;10182;52.896;6.496;2022-08-03T11:54:49;15.17;;;3.70;;
20042;SDS011;10182;52.896;6.496;2022-08-03T11:59:52;13.87;;;3.70;;
20042;SDS011;10182;52.896;6.496;2022-08-03T12:04:55;13.73;;;3.30;;
20042;SDS011;10182;52.896;6.496;2022-08-03T12:10:04;11.00;;;4.30;;
20042;SDS011;10182;52.896;6.496;2022-08-03T12:15:09;17.57;;;3.53;;
20042;SDS011;10182;52.896;6.496;2022-08-03T12:20:14;15.60;;;3.90;;
20042;SDS011;10182;52.896;6.496;2022-08-03T12:25:22;12.00;;;3.40;;
20042;SDS011;10182;52.896;6.496;2022-08-03T12:30:28;11.60;;;3.17;;
20042;SDS011;10182;52.896;6.496;2022-08-03T12:35:30;13.83;;;3.17;;
20042;SDS011;10182;52.896;6.496;2022-08-03T12:40:31;9.67;;;3.00;;
20042;SDS011;10182;52.896;6.496;2022-08-03T12:45:34;6.63;;;2.23;;
20042;SDS011;10182;52.896;6.496;2022-08-03T12:50:37;9.13;;;2.60;;
20042;SDS011;10182;52.896;6.496;2022-08-03T12:55:40;9.03;;;2.43;;
20042;SDS011;10182;52.896;6.496;2022-08-03T13:00:54;7.63;;;2.00;;
20042;SDS011;10182;52.896;6.496;2022-08-03T13:05:56;10.27;;;3.20;;
20042;SDS011;10182;52.896;6.496;2022-08-03T13:10:58;9.33;;;2.90;;
20042;SDS011;10182;52.896;6.496;2022-08-03T13:16:19;10.00;;;2.50;;
20042;SDS011;10182;52.896;6.496;2022-08-03T13:21:22;10.20;;;2.70;;
20042;SDS011;10182;52.896;6.496;2022-08-03T13:26:23;11.37;;;3.17;;
20042;SDS011;10182;52.896;6.496;2022-08-03T13:31:26;7.30;;;2.30;;
20042;SDS011;10182;52.896;6.496;2022-08-03T13:36:28;10.33;;;2.40;;
20042;SDS011;10182;52.896;6.496;2022-08-03T13:41:30;7.73;;;2.77;;
20042;SDS011;10182;52.896;6.496;2022-08-03T13:46:33;8.03;;;2.47;;
20042;SDS011;10182;52.896;6.496;2022-08-03T13:51:34;8.07;;;2.03;;
20042;SDS011;10182;52.896;6.496;2022-08-03T13:56:36;8.30;;;2.57;;
20042;SDS011;10182;52.896;6.496;2022-08-03T14:01:39;7.93;;;2.30;;
20042;SDS011;10182;52.896;6.496;2022-08-03T14:06:41;6.93;;;2.30;;
20042;SDS011;10182;52.896;6.496;2022-08-03T14:11:44;10.87;;;2.70;;
20042;SDS011;10182;52.896;6.496;2022-08-03T14:16:47;13.70;;;3.37;;
20042;SDS011;10182;52.896;6.496;2022-08-03T14:21:48;10.50;;;3.17;;
20042;SDS011;10182;52.896;6.496;2022-08-03T14:26:50;7.53;;;3.10;;
20042;SDS011;10182;52.896;6.496;2022-08-03T14:31:53;7.83;;;2.90;;
20042;SDS011;10182;52.896;6.496;2022-08-03T14:36:55;12.07;;;3.10;;
20042;SDS011;10182;52.896;6.496;2022-08-03T14:41:56;11.43;;;3.57;;
20042;SDS011;10182;52.896;6.496;2022-08-03T14:46:59;6.30;;;2.70;;
20042;SDS011;10182;52.896;6.496;2022-08-03T14:52:01;10.27;;;3.23;;
20042;SDS011;10182;52.896;6.496;2022-08-03T14:57:03;9.03;;;3.40;;
20042;SDS011;10182;52.896;6.496;2022-08-03T15:02:06;7.90;;;3.30;;
20042;SDS011;10182;52.896;6.496;2022-08-03T15:07:08;8.33;;;3.20;;
20042;SDS011;10182;52.896;6.496;2022-08-03T15:12:09;6.97;;;3.03;;
20042;SDS011;10182;52.896;6.496;2022-08-03T15:17:12;10.40;;;3.70;;
20042;SDS011;10182;52.896;6.496;2022-08-03T15:22:14;9.47;;;3.37;;
20042;SDS011;10182;52.896;6.496;2022-08-03T15:27:16;7.50;;;2.93;;
20042;SDS011;10182;52.896;6.496;2022-08-03T15:32:19;6.30;;;3.27;;
20042;SDS011;10182;52.896;6.496;2022-08-03T15:37:21;7.73;;;3.60;;
20042;SDS011;10182;52.896;6.496;2022-08-03T15:42:24;5.63;;;3.27;;
20042;SDS011;10182;52.896;6.496;2022-08-03T15:47:27;6.63;;;3.47;;
20042;SDS011;10182;52.896;6.496;2022-08-03T15:52:29;5.10;;;2.57;;
20042;SDS011;10182;52.896;6.496;2022-08-03T15:57:30;6.83;;;2.57;;
20042;SDS011;10182;52.896;6.496;2022-08-03T16:02:33;6.90;;;2.90;;
20042;SDS011;10182;52.896;6.496;2022-08-03T16:07:36;7.40;;;2.93;;
20042;SDS011;10182;52.896;6.496;2022-08-03T16:12:45;9.80;;;2.93;;
20042;SDS011;10182;52.896;6.496;2022-08-03T16:17:48;9.20;;;2.67;;
20042;SDS011;10182;52.896;6.496;2022-08-03T16:22:50;7.33;;;2.80;;
20042;SDS011;10182;52.896;6.496;2022-08-03T16:27:52;6.20;;;2.37;;
20042;SDS011;10182;52.896;6.496;2022-08-03T16:32:55;4.43;;;2.50;;
20042;SDS011;10182;52.896;6.496;2022-08-03T16:37:56;6.73;;;2.47;;
20042;SDS011;10182;52.896;6.496;2022-08-03T16:42:58;7.90;;;3.10;;
20042;SDS011;10182;52.896;6.496;2022-08-03T16:48:01;6.23;;;2.30;;
20042;SDS011;10182;52.896;6.496;2022-08-03T16:53:04;6.03;;;2.23;;
20042;SDS011;10182;52.896;6.496;2022-08-03T16:58:07;4.60;;;2.10;;
20042;SDS011;10182;52.896;6.496;2022-08-03T17:03:10;3.83;;;1.93;;
20042;SDS011;10182;52.896;6.496;2022-08-03T17:08:12;5.60;;;2.00;;
20042;SDS011;10182;52.896;6.496;2022-08-03T17:13:13;7.87;;;2.20;;
20042;SDS011;10182;52.896;6.496;2022-08-03T17:18:16;4.40;;;2.07;;
20042;SDS011;10182;52.896;6.496;2022-08-03T17:23:23;10.10;;;2.53;;
20042;SDS011;10182;52.896;6.496;2022-08-03T17:28:38;6.00;;;2.20;;
20042;SDS011;10182;52.896;6.496;2022-08-03T17:33:43;6.87;;;2.07;;
20042;SDS011;10182;52.896;6.496;2022-08-03T17:38:46;10.67;;;2.50;;
20042;SDS011;10182;52.896;6.496;2022-08-03T17:43:49;5.07;;;2.17;;
20042;SDS011;10182;52.896;6.496;2022-08-03T17:48:52;5.50;;;2.00;;
20042;SDS011;10182;52.896;6.496;2022-08-03T17:53:56;9.03;;;2.17;;
20042;SDS011;10182;52.896;6.496;2022-08-03T17:59:07;5.27;;;1.67;;
20042;SDS011;10182;52.896;6.496;2022-08-03T18:04:17;6.27;;;1.63;;
20042;SDS011;10182;52.896;6.496;2022-08-03T18:09:22;7.10;;;2.20;;
20042;SDS011;10182;52.896;6.496;2022-08-03T18:14:28;8.27;;;2.00;;
20042;SDS011;10182;52.896;6.496;2022-08-03T18:19:34;9.80;;;2.60;;
20042;SDS011;10182;52.896;6.496;2022-08-03T18:24:36;6.60;;;2.10;;
20042;SDS011;10182;52.896;6.496;2022-08-03T18:29:39;4.50;;;1.90;;
20042;SDS011;10182;52.896;6.496;2022-08-03T18:34:43;8.30;;;2.30;;
20042;SDS011;10182;52.896;6.496;2022-08-03T18:39:46;9.33;;;2.43;;
20042;SDS011;10182;52.896;6.496;2022-08-03T18:44:47;5.30;;;1.97;;
20042;SDS011;10182;52.896;6.496;2022-08-03T18:49:54;8.80;;;2.53;;
20042;SDS011;10182;52.896;6.496;2022-08-03T18:55:02;4.93;;;1.93;;
20042;SDS011;10182;52.896;6.496;2022-08-03T19:00:09;6.53;;;2.87;;
20042;SDS011;10182;52.896;6.496;2022-08-03T19:05:16;8.17;;;2.83;;
20042;SDS011;10182;52.896;6.496;2022-08-03T19:10:20;6.03;;;2.33;;
20042;SDS011;10182;52.896;6.496;2022-08-03T19:15:27;7.97;;;2.40;;
20042;SDS011;10182;52.896;6.496;2022-08-03T19:20:32;6.30;;;2.27;;
20042;SDS011;10182;52.896;6.496;2022-08-03T19:25:34;5.43;;;2.23;;
20042;SDS011;10182;52.896;6.496;2022-08-03T19:30:38;6.43;;;2.40;;
20042;SDS011;10182;52.896;6.496;2022-08-03T19:35:42;9.93;;;3.30;;
20042;SDS011;10182;52.896;6.496;2022-08-03T19:40:46;10.53;;;2.77;;
20042;SDS011;10182;52.896;6.496;2022-08-03T19:45:49;9.30;;;2.70;;
20042;SDS011;10182;52.896;6.496;2022-08-03T19:50:56;8.00;;;2.43;;
20042;SDS011;10182;52.896;6.496;2022-08-03T19:55:58;4.43;;;2.37;;
20042;SDS011;10182;52.896;6.496;2022-08-03T20:01:04;9.83;;;3.03;;
20042;SDS011;10182;52.896;6.496;2022-08-03T20:06:07;9.63;;;3.13;;
20042;SDS011;10182;52.896;6.496;2022-08-03T20:11:11;7.97;;;2.97;;
20042;SDS011;10182;52.896;6.496;2022-08-03T20:16:13;9.83;;;2.70;;
20042;SDS011;10182;52.896;6.496;2022-08-03T20:21:16;8.70;;;2.67;;
20042;SDS011;10182;52.896;6.496;2022-08-03T20:26:18;5.47;;;2.50;;
20042;SDS011;10182;52.896;6.496;2022-08-03T20:31:20;12.27;;;3.07;;
20042;SDS011;10182;52.896;6.496;2022-08-03T20:36:24;11.70;;;3.47;;
20042;SDS011;10182;52.896;6.496;2022-08-03T20:41:26;8.47;;;3.20;;
20042;SDS011;10182;52.896;6.496;2022-08-03T20:46:28;6.33;;;2.77;;
20042;SDS011;10182;52.896;6.496;2022-08-03T20:51:31;13.57;;;2.73;;
20042;SDS011;10182;52.896;6.496;2022-08-03T20:56:35;9.73;;;4.03;;
20042;SDS011;10182;52.896;6.496;2022-08-03T21:01:37;12.37;;;3.83;;
20042;SDS011;10182;52.896;6.496;2022-08-03T21:06:40;7.80;;;4.07;;
20042;SDS011;10182;52.896;6.496;2022-08-03T21:11:47;8.30;;;3.93;;
20042;SDS011;10182;52.896;6.496;2022-08-03T21:16:50;8.80;;;4.00;;
20042;SDS011;10182;52.896;6.496;2022-08-03T21:21:53;7.83;;;4.20;;
20042;SDS011;10182;52.896;6.496;2022-08-03T21:26:55;14.03;;;4.73;;
20042;SDS011;10182;52.896;6.496;2022-08-03T21:31:57;11.07;;;4.50;;
20042;SDS011;10182;52.896;6.496;2022-08-03T21:37:00;10.63;;;4.97;;
20042;SDS011;10182;52.896;6.496;2022-08-03T21:42:02;12.70;;;4.13;;
20042;SDS011;10182;52.896;6.496;2022-08-03T21:47:04;12.90;;;3.80;;
20042;SDS011;10182;52.896;6.496;2022-08-03T21:52:09;10.77;;;4.80;;
20042;SDS011;10182;52.896;6.496;2022-08-03T21:57:12;10.53;;;4.27;;
20042;SDS011;10182;52.896;6.496;2022-08-03T22:02:21;5.67;;;4.07;;
20042;SDS011;10182;52.896;6.496;2022-08-03T22:07:28;7.80;;;3.80;;
20042;SDS011;10182;52.896;6.496;2022-08-03T22:12:30;7.17;;;4.20;;
20042;SDS011;10182;52.896;6.496;2022-08-03T22:17:33;7.30;;;4.27;;
20042;SDS011;10182;52.896;6.496;2022-08-03T22:22:38;6.87;;;4.03;;
20042;SDS011;10182;52.896;6.496;2022-08-03T22:27:42;10.83;;;4.80;;
20042;SDS011;10182;52.896;6.496;2022-08-03T22:32:45;7.13;;;3.93;;
20042;SDS011;10182;52.896;6.496;2022-08-03T22:37:52;6.97;;;3.83;;
20042;SDS011;10182;52.896;6.496;2022-08-03T22:42:54;6.17;;;3.97;;
20042;SDS011;10182;52.896;6.496;2022-08-03T22:47:57;6.47;;;3.60;;
20042;SDS011;10182;52.896;6.496;2022-08-03T22:53:02;10.40;;;4.53;;
20042;SDS011;10182;52.896;6.496;2022-08-03T22:58:03;9.83;;;4.07;;
20042;SDS011;10182;52.896;6.496;2022-08-03T23:03:05;7.97;;;4.10;;
20042;SDS011;10182;52.896;6.496;2022-08-03T23:08:09;10.20;;;4.40;;
20042;SDS011;10182;52.896;6.496;2022-08-03T23:13:14;8.77;;;4.40;;
20042;SDS011;10182;52.896;6.496;2022-08-03T23:18:17;8.73;;;4.63;;
20042;SDS011;10182;52.896;6.496;2022-08-03T23:23:22;5.60;;;4.33;;
20042;SDS011;10182;52.896;6.496;2022-08-03T23:28:24;5.87;;;3.80;;
20042;SDS011;10182;52.896;6.496;2022-08-03T23:33:30;10.03;;;4.57;;
20042;SDS011;10182;52.896;6.496;2022-08-03T23:38:35;8.50;;;4.20;;
20042;SDS011;10182;52.896;6.496;2022-08-03T23:43:37;6.57;;;4.13;;
20042;SDS011;10182;52.896;6.496;2022-08-03T23:48:40;6.23;;;4.03;;
20042;SDS011;10182;52.896;6.496;2022-08-03T23:53:43;9.30;;;4.23;;
20042;SDS011;10182;52.896;6.496;2022-08-03T23:58:58;11.47;;;4.50;;
